createdAt,value
2017-05-14T00:00:38.334Z,0
2017-05-14T00:01:38.950Z,0
2017-05-14T00:02:39.561Z,0
2017-05-14T00:03:40.171Z,0
2017-05-14T00:04:40.787Z,0
2017-05-14T00:05:41.395Z,0
2017-05-14T00:06:42.006Z,0
2017-05-14T00:07:42.617Z,0
2017-05-14T00:08:43.229Z,0
2017-05-14T00:09:43.839Z,0
2017-05-14T00:10:44.455Z,0
2017-05-14T00:11:45.064Z,0
2017-05-14T00:12:45.676Z,0
2017-05-14T00:13:46.293Z,0
2017-05-14T00:14:46.898Z,0
2017-05-14T00:15:47.559Z,0
2017-05-14T00:16:48.168Z,0
2017-05-14T00:17:48.779Z,0
2017-05-14T00:18:49.389Z,0
2017-05-14T00:19:49.998Z,0
2017-05-14T00:20:50.609Z,0
2017-05-14T00:21:51.220Z,0
2017-05-14T00:22:51.837Z,0
2017-05-14T00:23:52.482Z,0
2017-05-14T00:24:53.099Z,0
2017-05-14T00:25:53.762Z,0
2017-05-14T00:26:54.371Z,0
2017-05-14T00:27:54.982Z,0
2017-05-14T00:28:55.591Z,0
2017-05-14T00:29:56.201Z,0
2017-05-14T00:30:56.862Z,0
2017-05-14T00:31:57.474Z,0
2017-05-14T00:32:58.085Z,0
2017-05-14T00:33:58.695Z,0
2017-05-14T00:34:59.308Z,0
2017-05-14T00:35:59.973Z,0
2017-05-14T00:37:00.581Z,0
2017-05-14T00:38:01.198Z,0
2017-05-14T00:39:01.810Z,0
2017-05-14T00:40:02.420Z,0
2017-05-14T00:41:03.086Z,0
2017-05-14T00:42:03.694Z,0
2017-05-14T00:43:04.314Z,0
2017-05-14T00:44:04.921Z,0
2017-05-14T00:45:05.532Z,0
2017-05-14T00:46:06.144Z,0
2017-05-14T00:47:06.753Z,0
2017-05-14T00:48:07.367Z,0
2017-05-14T00:49:07.975Z,0
2017-05-14T00:50:08.586Z,0
2017-05-14T00:51:09.244Z,0
2017-05-14T00:52:09.861Z,0
2017-05-14T00:53:10.467Z,0
2017-05-14T00:54:11.077Z,0
2017-05-14T00:55:11.688Z,0
2017-05-14T00:56:12.348Z,0
2017-05-14T00:57:12.966Z,0
2017-05-14T00:58:13.572Z,0
2017-05-14T00:59:14.217Z,0
2017-05-14T01:00:14.827Z,0
2017-05-14T01:01:15.494Z,0
2017-05-14T01:02:16.136Z,0
2017-05-14T01:03:16.750Z,0
2017-05-14T01:04:17.358Z,0
2017-05-14T01:05:17.969Z,0
2017-05-14T01:06:18.629Z,0
2017-05-14T01:07:19.239Z,0
2017-05-14T01:08:19.852Z,0
2017-05-14T01:09:20.462Z,0
2017-05-14T01:10:21.073Z,0
2017-05-14T01:11:21.683Z,0
2017-05-14T01:12:22.294Z,0
2017-05-14T01:13:22.936Z,0
2017-05-14T01:14:23.553Z,0
2017-05-14T01:15:24.166Z,0
2017-05-14T01:16:24.773Z,0
2017-05-14T01:17:25.382Z,0
2017-05-14T01:18:25.991Z,0
2017-05-14T01:19:26.601Z,0
2017-05-14T01:20:27.217Z,0
2017-05-14T01:21:27.835Z,0
2017-05-14T01:22:28.440Z,0
2017-05-14T01:23:29.058Z,0
2017-05-14T01:24:29.670Z,0
2017-05-14T01:25:30.279Z,0
2017-05-14T01:26:30.889Z,0
2017-05-14T01:27:31.500Z,0
2017-05-14T01:28:32.110Z,0
2017-05-14T01:29:32.726Z,0
2017-05-14T01:30:33.339Z,0
2017-05-14T01:31:33.998Z,0
2017-05-14T01:32:34.607Z,0
2017-05-14T01:33:35.219Z,0
2017-05-14T01:34:35.829Z,0
2017-05-14T01:35:36.439Z,0
2017-05-14T01:36:37.050Z,0
2017-05-14T01:37:37.660Z,0
2017-05-14T01:38:38.274Z,0
2017-05-14T01:39:38.882Z,0
2017-05-14T01:40:39.500Z,0
2017-05-14T01:41:40.108Z,0
2017-05-14T01:42:40.718Z,0
2017-05-14T01:43:41.330Z,0
2017-05-14T01:44:41.941Z,0
2017-05-14T01:45:42.557Z,0
2017-05-14T01:46:43.257Z,0
2017-05-14T01:47:43.865Z,0
2017-05-14T01:48:44.482Z,0
2017-05-14T01:49:45.090Z,0
2017-05-14T01:50:45.700Z,0
2017-05-14T01:51:46.310Z,0
2017-05-14T01:52:46.926Z,0
2017-05-14T01:53:47.533Z,0
2017-05-14T01:54:48.143Z,0
2017-05-14T01:55:48.758Z,0
2017-05-14T01:56:49.367Z,0
2017-05-14T01:57:49.975Z,0
2017-05-14T01:58:50.609Z,0
2017-05-14T01:59:51.217Z,0
2017-05-14T02:00:51.826Z,0
2017-05-14T02:01:52.437Z,0
2017-05-14T02:02:53.045Z,0
2017-05-14T02:03:53.656Z,0
2017-05-14T02:04:54.267Z,0
2017-05-14T02:05:54.877Z,0
2017-05-14T02:06:55.489Z,0
2017-05-14T02:07:56.133Z,0
2017-05-14T02:08:56.745Z,0
2017-05-14T02:09:57.357Z,0
2017-05-14T02:10:57.970Z,0
2017-05-14T02:11:58.618Z,0
2017-05-14T02:12:59.224Z,0
2017-05-14T02:13:59.835Z,0
2017-05-14T02:15:00.443Z,0
2017-05-14T02:16:01.059Z,0
2017-05-14T02:17:01.667Z,0
2017-05-14T02:18:02.282Z,0
2017-05-14T02:19:02.892Z,0
2017-05-14T02:20:03.502Z,0
2017-05-14T02:21:04.112Z,0
2017-05-14T02:22:04.724Z,0
2017-05-14T02:23:05.368Z,0
2017-05-14T02:24:05.984Z,0
2017-05-14T02:25:06.594Z,0
2017-05-14T02:26:07.205Z,0
2017-05-14T02:27:07.815Z,0
2017-05-14T02:28:08.458Z,0
2017-05-14T02:29:09.075Z,0
2017-05-14T02:30:09.683Z,0
2017-05-14T02:31:10.296Z,0
2017-05-14T02:32:10.993Z,0
2017-05-14T02:33:11.602Z,0
2017-05-14T02:34:12.211Z,0
2017-05-14T02:35:12.825Z,0
2017-05-14T02:36:13.433Z,0
2017-05-14T02:37:14.078Z,0
2017-05-14T02:38:14.687Z,0
2017-05-14T02:39:15.296Z,0
2017-05-14T02:40:15.905Z,0
2017-05-14T02:41:16.518Z,0
2017-05-14T02:42:17.181Z,0
2017-05-14T02:43:17.789Z,0
2017-05-14T02:44:18.403Z,0
2017-05-14T02:45:19.044Z,0
2017-05-14T02:46:19.655Z,0
2017-05-14T02:47:20.314Z,0
2017-05-14T02:48:20.930Z,0
2017-05-14T02:49:21.537Z,0
2017-05-14T02:50:22.147Z,0
2017-05-14T02:51:22.760Z,0
2017-05-14T02:52:23.422Z,0
2017-05-14T02:53:24.064Z,0
2017-05-14T02:54:24.682Z,0
2017-05-14T02:55:25.290Z,0
2017-05-14T02:56:25.905Z,0
2017-05-14T02:57:26.513Z,0
2017-05-14T02:58:27.128Z,0
2017-05-14T02:59:27.739Z,0
2017-05-14T03:00:28.347Z,0
2017-05-14T03:01:28.958Z,0
2017-05-14T03:02:29.626Z,0
2017-05-14T03:03:30.234Z,0
2017-05-14T03:04:30.845Z,0
2017-05-14T03:05:31.465Z,0
2017-05-14T03:06:32.070Z,0
2017-05-14T03:07:32.729Z,0
2017-05-14T03:08:33.346Z,0
2017-05-14T03:09:33.961Z,0
2017-05-14T03:10:34.570Z,0
2017-05-14T03:11:35.180Z,0
2017-05-14T03:12:35.822Z,0
2017-05-14T03:13:36.432Z,0
2017-05-14T03:14:37.041Z,0
2017-05-14T03:15:37.652Z,0
2017-05-14T03:16:38.264Z,0
2017-05-14T03:17:38.884Z,0
2017-05-14T03:18:39.486Z,0
2017-05-14T03:19:40.101Z,0
2017-05-14T03:20:40.709Z,0
2017-05-14T03:21:41.327Z,0
2017-05-14T03:22:41.977Z,0
2017-05-14T03:23:42.584Z,0
2017-05-14T03:24:43.231Z,0
2017-05-14T03:25:43.846Z,0
2017-05-14T03:26:44.454Z,0
2017-05-14T03:27:45.120Z,0
2017-05-14T03:28:45.735Z,0
2017-05-14T03:29:46.346Z,0
2017-05-14T03:30:46.955Z,0
2017-05-14T03:31:47.567Z,0
2017-05-14T03:32:48.179Z,0
2017-05-14T03:33:48.787Z,0
2017-05-14T03:34:49.399Z,0
2017-05-14T03:35:50.015Z,0
2017-05-14T03:36:50.627Z,0
2017-05-14T03:37:51.313Z,0
2017-05-14T03:38:51.928Z,0
2017-05-14T03:39:52.537Z,0
2017-05-14T03:40:53.148Z,0
2017-05-14T03:41:53.760Z,0
2017-05-14T03:42:54.370Z,0
2017-05-14T03:43:54.981Z,0
2017-05-14T03:44:55.591Z,0
2017-05-14T03:45:56.200Z,0
2017-05-14T03:46:56.811Z,0
2017-05-14T03:47:57.472Z,0
2017-05-14T03:48:58.082Z,0
2017-05-14T03:49:58.699Z,0
2017-05-14T03:50:59.306Z,0
2017-05-14T03:51:59.916Z,0
2017-05-14T03:53:00.577Z,0
2017-05-14T03:54:01.192Z,0
2017-05-14T03:55:01.800Z,0
2017-05-14T03:56:02.410Z,0
2017-05-14T03:57:03.018Z,0
2017-05-14T03:58:03.679Z,0
2017-05-14T03:59:04.295Z,0
2017-05-14T04:00:04.908Z,0
2017-05-14T04:01:05.513Z,0
2017-05-14T04:02:06.122Z,0
2017-05-14T04:03:06.782Z,0
2017-05-14T04:04:07.392Z,0
2017-05-14T04:05:08.002Z,0
2017-05-14T04:06:08.617Z,0
2017-05-14T04:07:09.228Z,0
2017-05-14T04:08:09.845Z,0
2017-05-14T04:09:10.495Z,0
2017-05-14T04:10:11.104Z,0
2017-05-14T04:11:11.720Z,0
2017-05-14T04:12:12.327Z,0
2017-05-14T04:13:12.937Z,0
2017-05-14T04:14:13.547Z,0
2017-05-14T04:15:14.159Z,0
2017-05-14T04:16:14.768Z,0
2017-05-14T04:17:15.381Z,0
2017-05-14T04:18:15.994Z,0
2017-05-14T04:19:16.604Z,0
2017-05-14T04:20:17.220Z,0
2017-05-14T04:21:17.830Z,0
2017-05-14T04:22:18.439Z,0
2017-05-14T04:23:19.100Z,0
2017-05-14T04:24:19.710Z,0
2017-05-14T04:25:20.323Z,0
2017-05-14T04:26:20.935Z,0
2017-05-14T04:27:21.553Z,0
2017-05-14T04:28:22.194Z,0
2017-05-14T04:29:22.810Z,0
2017-05-14T04:30:23.419Z,0
2017-05-14T04:31:24.037Z,0
2017-05-14T04:32:24.648Z,0
2017-05-14T04:33:25.313Z,0
2017-05-14T04:34:25.921Z,0
2017-05-14T04:35:26.568Z,0
2017-05-14T04:36:27.177Z,0
2017-05-14T04:37:27.798Z,0
2017-05-14T04:38:28.397Z,0
2017-05-14T04:39:29.012Z,0
2017-05-14T04:40:29.627Z,0
2017-05-14T04:41:30.271Z,0
2017-05-14T04:42:30.886Z,0
2017-05-14T04:43:31.546Z,0
2017-05-14T04:44:32.194Z,0
2017-05-14T04:45:32.805Z,0
2017-05-14T04:46:33.417Z,0
2017-05-14T04:47:34.033Z,0
2017-05-14T04:48:34.641Z,0
2017-05-14T04:49:35.251Z,0
2017-05-14T04:50:35.865Z,0
2017-05-14T04:51:36.480Z,0
2017-05-14T04:52:37.091Z,0
2017-05-14T04:53:37.704Z,0
2017-05-14T04:54:38.314Z,0
2017-05-14T04:55:38.925Z,0
2017-05-14T04:56:39.537Z,0
2017-05-14T04:57:40.154Z,0
2017-05-14T04:58:40.764Z,0
2017-05-14T04:59:41.385Z,0
2017-05-14T05:00:41.991Z,0
2017-05-14T05:01:42.607Z,0
2017-05-14T05:02:43.215Z,0
2017-05-14T05:03:43.881Z,0
2017-05-14T05:04:44.490Z,0
2017-05-14T05:05:45.099Z,0
2017-05-14T05:06:45.716Z,0
2017-05-14T05:07:46.326Z,0
2017-05-14T05:08:46.939Z,0
2017-05-14T05:09:47.555Z,5
2017-05-14T05:10:48.165Z,5
2017-05-14T05:11:48.776Z,5
2017-05-14T05:12:49.385Z,5
2017-05-14T05:13:49.998Z,5
2017-05-14T05:14:50.643Z,5
2017-05-14T05:15:51.290Z,5
2017-05-14T05:16:51.897Z,5
2017-05-14T05:17:52.511Z,5
2017-05-14T05:18:53.169Z,5
2017-05-14T05:19:53.782Z,5
2017-05-14T05:20:54.392Z,5
2017-05-14T05:21:55.004Z,5
2017-05-14T05:22:55.620Z,5
2017-05-14T05:23:56.227Z,5
2017-05-14T05:24:56.840Z,5
2017-05-14T05:25:57.455Z,5
2017-05-14T05:26:58.064Z,5
2017-05-14T05:27:58.677Z,5
2017-05-14T05:28:59.290Z,5
2017-05-14T05:29:59.952Z,5
2017-05-14T05:31:00.546Z,5
2017-05-14T05:32:01.157Z,5
2017-05-14T05:33:01.771Z,5
2017-05-14T05:34:02.381Z,5
2017-05-14T05:35:02.992Z,5
2017-05-14T05:36:03.602Z,5
2017-05-14T05:37:04.215Z,5
2017-05-14T05:38:04.826Z,5
2017-05-14T05:39:05.488Z,5
2017-05-14T05:40:06.105Z,5
2017-05-14T05:41:06.715Z,5
2017-05-14T05:42:07.361Z,5
2017-05-14T05:43:07.968Z,5
2017-05-14T05:44:08.587Z,5
2017-05-14T05:45:09.195Z,5
2017-05-14T05:46:09.812Z,5
2017-05-14T05:47:10.455Z,5
2017-05-14T05:48:11.072Z,5
2017-05-14T05:49:11.688Z,5
2017-05-14T05:50:12.297Z,5
2017-05-14T05:51:12.910Z,5
2017-05-14T05:52:13.524Z,5
2017-05-14T05:53:14.173Z,5
2017-05-14T05:54:14.815Z,5
2017-05-14T05:55:15.429Z,5
2017-05-14T05:56:16.041Z,5
2017-05-14T05:57:16.651Z,5
2017-05-14T05:58:17.262Z,5
2017-05-14T05:59:17.923Z,5
2017-05-14T06:00:18.537Z,5
2017-05-14T06:01:19.147Z,5
2017-05-14T06:02:19.764Z,5
2017-05-14T06:03:20.377Z,5
2017-05-14T06:04:20.986Z,5
2017-05-14T06:05:21.602Z,5
2017-05-14T06:06:22.213Z,5
2017-05-14T06:07:22.827Z,5
2017-05-14T06:08:23.445Z,5
2017-05-14T06:09:24.102Z,5
2017-05-14T06:10:24.724Z,5
2017-05-14T06:11:25.370Z,5
2017-05-14T06:12:25.979Z,5
2017-05-14T06:13:26.591Z,5
2017-05-14T06:14:27.254Z,5
2017-05-14T06:15:27.864Z,5
2017-05-14T06:16:28.479Z,5
2017-05-14T06:17:29.088Z,5
2017-05-14T06:18:29.700Z,5
2017-05-14T06:19:30.313Z,10
2017-05-14T06:20:30.925Z,10
2017-05-14T06:21:31.545Z,10
2017-05-14T06:22:32.162Z,10
2017-05-14T06:23:32.773Z,10
2017-05-14T06:24:33.435Z,10
2017-05-14T06:25:34.051Z,10
2017-05-14T06:26:34.667Z,10
2017-05-14T06:27:35.280Z,10
2017-05-14T06:28:35.893Z,10
2017-05-14T06:29:36.507Z,10
2017-05-14T06:30:37.120Z,10
2017-05-14T06:31:37.732Z,10
2017-05-14T06:32:38.348Z,10
2017-05-14T06:33:38.962Z,10
2017-05-14T06:34:39.629Z,10
2017-05-14T06:35:40.238Z,10
2017-05-14T06:36:40.850Z,10
2017-05-14T06:37:41.465Z,10
2017-05-14T06:38:42.087Z,10
2017-05-14T06:39:42.701Z,10
2017-05-14T06:40:43.312Z,10
2017-05-14T06:41:43.962Z,10
2017-05-14T06:42:44.572Z,10
2017-05-14T06:43:45.186Z,10
2017-05-14T06:44:45.805Z,10
2017-05-14T06:45:46.424Z,10
2017-05-14T06:46:47.043Z,10
2017-05-14T06:47:47.686Z,10
2017-05-14T06:48:48.307Z,10
2017-05-14T06:49:48.965Z,10
2017-05-14T06:50:49.582Z,10
2017-05-14T06:51:50.196Z,10
2017-05-14T06:52:50.847Z,10
2017-05-14T06:53:51.458Z,10
2017-05-14T06:54:52.070Z,10
2017-05-14T06:55:52.684Z,10
2017-05-14T06:56:53.295Z,10
2017-05-14T06:57:53.910Z,15
2017-05-14T06:58:54.525Z,15
2017-05-14T06:59:55.139Z,15
2017-05-14T07:00:55.786Z,15
2017-05-14T07:01:56.403Z,15
2017-05-14T07:02:57.023Z,15
2017-05-14T07:03:57.627Z,15
2017-05-14T07:04:58.240Z,15
2017-05-14T07:05:58.855Z,15
2017-05-14T07:06:59.508Z,15
2017-05-14T07:08:00.126Z,15
2017-05-14T07:09:00.739Z,15
2017-05-14T07:10:01.351Z,20
2017-05-14T07:11:01.964Z,20
2017-05-14T07:12:02.584Z,20
2017-05-14T07:13:03.196Z,20
2017-05-14T07:14:03.810Z,20
2017-05-14T07:15:04.474Z,20
2017-05-14T07:16:05.088Z,20
2017-05-14T07:17:05.701Z,20
2017-05-14T07:18:06.316Z,20
2017-05-14T07:19:06.933Z,15
2017-05-14T07:20:07.547Z,15
2017-05-14T07:21:08.161Z,15
2017-05-14T07:22:08.779Z,15
2017-05-14T07:23:09.387Z,15
2017-05-14T07:24:10.007Z,20
2017-05-14T07:25:10.661Z,20
2017-05-14T07:26:11.281Z,20
2017-05-14T07:27:11.892Z,20
2017-05-14T07:28:12.509Z,20
2017-05-14T07:29:13.120Z,20
2017-05-14T07:30:13.816Z,20
2017-05-14T07:31:14.431Z,20
2017-05-14T07:32:15.077Z,20
2017-05-14T07:33:15.692Z,20
2017-05-14T07:34:16.306Z,20
2017-05-14T07:35:16.971Z,15
2017-05-14T07:36:17.590Z,15
2017-05-14T07:37:18.202Z,15
2017-05-14T07:38:18.820Z,15
2017-05-14T07:39:19.433Z,20
2017-05-14T07:40:20.047Z,20
2017-05-14T07:41:20.659Z,20
2017-05-14T07:42:21.273Z,20
2017-05-14T07:43:21.887Z,20
2017-05-14T07:44:22.504Z,20
2017-05-14T07:45:23.125Z,20
2017-05-14T07:46:23.735Z,20
2017-05-14T07:47:24.349Z,20
2017-05-14T07:48:24.961Z,20
2017-05-14T07:49:25.575Z,15
2017-05-14T07:50:26.241Z,20
2017-05-14T07:51:26.856Z,20
2017-05-14T07:52:27.476Z,20
2017-05-14T07:53:28.086Z,20
2017-05-14T07:54:28.700Z,20
2017-05-14T07:55:29.314Z,20
2017-05-14T07:56:29.931Z,20
2017-05-14T07:57:30.579Z,20
2017-05-14T07:58:31.193Z,20
2017-05-14T07:59:31.807Z,20
2017-05-14T08:00:32.471Z,20
2017-05-14T08:01:33.086Z,20
2017-05-14T08:02:33.705Z,20
2017-05-14T08:03:34.322Z,20
2017-05-14T08:04:34.933Z,20
2017-05-14T08:05:35.547Z,20
2017-05-14T08:06:36.161Z,20
2017-05-14T08:07:36.776Z,25
2017-05-14T08:08:37.392Z,25
2017-05-14T08:09:38.008Z,25
2017-05-14T08:10:38.622Z,25
2017-05-14T08:11:39.239Z,25
2017-05-14T08:12:39.853Z,25
2017-05-14T08:13:40.468Z,25
2017-05-14T08:14:41.091Z,25
2017-05-14T08:15:41.753Z,25
2017-05-14T08:16:42.375Z,25
2017-05-14T08:17:42.986Z,25
2017-05-14T08:18:43.606Z,25
2017-05-14T08:19:44.222Z,25
2017-05-14T08:20:44.844Z,25
2017-05-14T08:21:45.456Z,25
2017-05-14T08:22:46.071Z,20
2017-05-14T08:23:46.689Z,20
2017-05-14T08:24:47.305Z,25
2017-05-14T08:25:47.927Z,20
2017-05-14T08:26:48.538Z,25
2017-05-14T08:27:49.153Z,20
2017-05-14T08:28:49.779Z,20
2017-05-14T08:29:50.396Z,20
2017-05-14T08:30:51.009Z,20
2017-05-14T08:31:51.626Z,30
2017-05-14T08:32:52.241Z,30
2017-05-14T08:33:52.857Z,30
2017-05-14T08:34:53.485Z,30
2017-05-14T08:35:54.090Z,20
2017-05-14T08:36:54.708Z,30
2017-05-14T08:37:55.323Z,25
2017-05-14T08:38:55.938Z,20
2017-05-14T08:39:56.555Z,20
2017-05-14T08:40:57.172Z,20
2017-05-14T08:41:57.787Z,20
2017-05-14T08:42:58.404Z,20
2017-05-14T08:43:59.020Z,20
2017-05-14T08:44:59.635Z,20
2017-05-14T08:46:00.553Z,20
2017-05-14T08:47:01.171Z,20
2017-05-14T08:48:01.786Z,20
2017-05-14T08:49:02.403Z,20
2017-05-14T08:50:03.019Z,20
2017-05-14T08:51:03.683Z,20
2017-05-14T08:52:04.300Z,20
2017-05-14T08:53:04.922Z,20
2017-05-14T08:54:05.540Z,20
2017-05-14T08:55:06.160Z,20
2017-05-14T08:56:07.024Z,20
2017-05-14T08:57:07.644Z,20
2017-05-14T08:58:08.257Z,20
2017-05-14T08:59:08.875Z,20
2017-05-14T09:00:09.490Z,20
2017-05-14T09:01:10.104Z,20
2017-05-14T09:02:10.729Z,20
2017-05-14T09:03:11.341Z,25
2017-05-14T09:04:11.956Z,25
2017-05-14T09:05:12.572Z,25
2017-05-14T09:06:13.188Z,25
2017-05-14T09:07:13.809Z,25
2017-05-14T09:08:14.438Z,25
2017-05-14T09:09:15.040Z,30
2017-05-14T09:10:15.657Z,30
2017-05-14T09:11:16.323Z,30
2017-05-14T09:12:16.941Z,35
2017-05-14T09:13:17.597Z,35
2017-05-14T09:14:18.210Z,35
2017-05-14T09:15:18.832Z,35
2017-05-14T09:16:19.452Z,35
2017-05-14T09:17:20.074Z,35
2017-05-14T09:18:20.689Z,30
2017-05-14T09:19:21.305Z,30
2017-05-14T09:20:21.922Z,35
2017-05-14T09:21:22.594Z,35
2017-05-14T09:22:23.215Z,40
2017-05-14T09:23:23.828Z,40
2017-05-14T09:24:24.450Z,40
2017-05-14T09:25:25.064Z,35
2017-05-14T09:26:25.732Z,35
2017-05-14T09:27:26.355Z,35
2017-05-14T09:28:26.969Z,35
2017-05-14T09:29:27.586Z,40
2017-05-14T09:30:28.204Z,40
2017-05-14T09:31:28.821Z,35
2017-05-14T09:32:29.436Z,30
2017-05-14T09:33:30.055Z,25
2017-05-14T09:34:30.670Z,40
2017-05-14T09:35:31.292Z,40
2017-05-14T09:36:31.907Z,40
2017-05-14T09:37:32.524Z,40
2017-05-14T09:38:33.142Z,35
2017-05-14T09:39:33.790Z,30
2017-05-14T09:40:34.409Z,30
2017-05-14T09:41:35.076Z,30
2017-05-14T09:42:35.694Z,20
2017-05-14T09:43:36.314Z,20
2017-05-14T09:44:36.930Z,20
2017-05-14T09:45:37.548Z,20
2017-05-14T09:46:38.214Z,20
2017-05-14T09:47:38.833Z,20
2017-05-14T09:48:39.450Z,20
2017-05-14T09:49:40.068Z,20
2017-05-14T09:50:40.685Z,20
2017-05-14T09:51:41.356Z,25
2017-05-14T09:52:41.971Z,20
2017-05-14T09:53:42.585Z,20
2017-05-14T09:54:43.235Z,20
2017-05-14T09:55:43.861Z,20
2017-05-14T09:56:44.522Z,20
2017-05-14T09:57:45.141Z,20
2017-05-14T09:58:45.763Z,20
2017-05-14T09:59:46.382Z,20
2017-05-14T10:00:46.996Z,20
2017-05-14T10:01:47.663Z,20
2017-05-14T10:02:48.288Z,20
2017-05-14T10:03:48.933Z,25
2017-05-14T10:04:49.551Z,25
2017-05-14T10:05:50.168Z,30
2017-05-14T10:06:50.835Z,30
2017-05-14T10:07:51.453Z,30
2017-05-14T10:08:52.070Z,50
2017-05-14T10:09:52.687Z,50
2017-05-14T10:10:53.310Z,30
2017-05-14T10:11:53.974Z,45
2017-05-14T10:12:54.625Z,50
2017-05-14T10:13:55.245Z,50
2017-05-14T10:14:55.862Z,30
2017-05-14T10:15:56.481Z,25
2017-05-14T10:16:57.097Z,25
2017-05-14T10:17:57.715Z,25
2017-05-14T10:18:58.335Z,35
2017-05-14T10:19:58.951Z,30
2017-05-14T10:20:59.571Z,50
2017-05-14T10:22:00.187Z,40
2017-05-14T10:23:00.804Z,40
2017-05-14T10:24:01.423Z,40
2017-05-14T10:25:02.041Z,30
2017-05-14T10:26:02.665Z,30
2017-05-14T10:27:03.328Z,30
2017-05-14T10:28:03.948Z,50
2017-05-14T10:29:04.565Z,50
2017-05-14T10:30:05.183Z,50
2017-05-14T10:31:05.801Z,50
2017-05-14T10:32:06.419Z,30
2017-05-14T10:33:07.040Z,30
2017-05-14T10:34:07.655Z,45
2017-05-14T10:35:08.273Z,30
2017-05-14T10:36:08.923Z,45
2017-05-14T10:37:09.541Z,50
2017-05-14T10:38:10.190Z,50
2017-05-14T10:39:10.815Z,50
2017-05-14T10:40:11.435Z,50
2017-05-14T10:41:12.053Z,45
2017-05-14T10:42:12.727Z,30
2017-05-14T10:43:13.342Z,35
2017-05-14T10:44:13.997Z,35
2017-05-14T10:45:14.611Z,35
2017-05-14T10:46:15.234Z,30
2017-05-14T10:47:15.906Z,35
2017-05-14T10:48:16.523Z,50
2017-05-14T10:49:17.147Z,25
2017-05-14T10:50:17.796Z,25
2017-05-14T10:51:18.417Z,25
2017-05-14T10:52:19.085Z,30
2017-05-14T10:53:19.702Z,25
2017-05-14T10:54:20.320Z,25
2017-05-14T10:55:20.942Z,25
2017-05-14T10:56:21.558Z,25
2017-05-14T10:57:22.226Z,25
2017-05-14T10:58:22.842Z,25
2017-05-14T10:59:23.460Z,30
2017-05-14T11:00:24.080Z,30
2017-05-14T11:01:24.696Z,30
2017-05-14T11:02:25.314Z,30
2017-05-14T11:03:25.937Z,30
2017-05-14T11:04:26.552Z,30
2017-05-14T11:05:27.176Z,45
2017-05-14T11:06:27.798Z,60
2017-05-14T11:07:28.465Z,60
2017-05-14T11:08:29.120Z,40
2017-05-14T11:09:29.735Z,65
2017-05-14T11:10:30.362Z,65
2017-05-14T11:11:30.980Z,35
2017-05-14T11:12:31.903Z,35
2017-05-14T11:13:32.516Z,35
2017-05-14T11:14:33.137Z,30
2017-05-14T11:15:33.756Z,30
2017-05-14T11:16:34.374Z,40
2017-05-14T11:17:35.047Z,40
2017-05-14T11:18:35.664Z,30
2017-05-14T11:19:36.283Z,30
2017-05-14T11:20:36.901Z,25
2017-05-14T11:21:37.519Z,25
2017-05-14T11:22:38.143Z,20
2017-05-14T11:23:38.759Z,20
2017-05-14T11:24:39.378Z,20
2017-05-14T11:25:40.002Z,20
2017-05-14T11:26:40.616Z,25
2017-05-14T11:27:41.283Z,25
2017-05-14T11:28:41.902Z,25
2017-05-14T11:29:42.521Z,25
2017-05-14T11:30:43.139Z,30
2017-05-14T11:31:43.758Z,35
2017-05-14T11:32:44.376Z,25
2017-05-14T11:33:44.998Z,25
2017-05-14T11:34:45.614Z,20
2017-05-14T11:35:46.233Z,20
2017-05-14T11:36:46.852Z,20
2017-05-14T11:37:47.467Z,20
2017-05-14T11:38:48.088Z,20
2017-05-14T11:39:48.707Z,20
2017-05-14T11:40:49.325Z,20
2017-05-14T11:41:49.944Z,20
2017-05-14T11:42:50.561Z,20
2017-05-14T11:43:51.177Z,20
2017-05-14T11:44:51.797Z,25
2017-05-14T11:45:52.416Z,25
2017-05-14T11:46:53.035Z,25
2017-05-14T11:47:53.652Z,25
2017-05-14T11:48:54.280Z,25
2017-05-14T11:49:54.933Z,30
2017-05-14T11:50:55.553Z,30
2017-05-14T11:51:56.202Z,30
2017-05-14T11:52:56.870Z,30
2017-05-14T11:53:57.487Z,30
2017-05-14T11:54:58.111Z,35
2017-05-14T11:55:58.728Z,35
2017-05-14T11:56:59.347Z,35
2017-05-14T11:57:59.963Z,40
2017-05-14T11:59:00.583Z,45
2017-05-14T12:00:01.202Z,50
2017-05-14T12:01:01.822Z,60
2017-05-14T12:02:02.443Z,45
2017-05-14T12:03:03.066Z,35
2017-05-14T12:04:03.685Z,35
2017-05-14T12:05:04.300Z,45
2017-05-14T12:06:04.927Z,35
2017-05-14T12:07:05.543Z,35
2017-05-14T12:08:06.166Z,40
2017-05-14T12:09:06.788Z,60
2017-05-14T12:10:07.409Z,60
2017-05-14T12:11:08.032Z,30
2017-05-14T12:12:08.652Z,30
2017-05-14T12:13:09.265Z,30
2017-05-14T12:14:09.890Z,30
2017-05-14T12:15:10.513Z,30
2017-05-14T12:16:11.129Z,30
2017-05-14T12:17:11.751Z,30
2017-05-14T12:18:12.397Z,35
2017-05-14T12:19:13.021Z,35
2017-05-14T12:20:13.642Z,35
2017-05-14T12:21:14.258Z,35
2017-05-14T12:22:14.884Z,30
2017-05-14T12:23:15.551Z,30
2017-05-14T12:24:16.169Z,30
2017-05-14T12:25:16.788Z,30
2017-05-14T12:26:17.409Z,30
2017-05-14T12:27:18.026Z,30
2017-05-14T12:28:18.645Z,30
2017-05-14T12:29:19.269Z,35
2017-05-14T12:30:19.886Z,35
2017-05-14T12:31:20.511Z,45
2017-05-14T12:32:21.126Z,35
2017-05-14T12:33:21.781Z,45
2017-05-14T12:34:22.396Z,35
2017-05-14T12:35:23.021Z,30
2017-05-14T12:36:23.638Z,65
2017-05-14T12:37:24.258Z,40
2017-05-14T12:38:25.133Z,35
2017-05-14T12:39:25.750Z,30
2017-05-14T12:40:26.369Z,35
2017-05-14T12:41:26.987Z,30
2017-05-14T12:42:27.606Z,35
2017-05-14T12:43:28.280Z,50
2017-05-14T12:44:28.896Z,30
2017-05-14T12:45:29.520Z,30
2017-05-14T12:46:30.138Z,30
2017-05-14T12:47:30.762Z,25
2017-05-14T12:48:31.434Z,25
2017-05-14T12:49:32.064Z,25
2017-05-14T12:50:32.675Z,25
2017-05-14T12:51:33.290Z,30
2017-05-14T12:52:33.910Z,35
2017-05-14T12:53:34.827Z,35
2017-05-14T12:54:35.448Z,35
2017-05-14T12:55:36.067Z,40
2017-05-14T12:56:36.692Z,60
2017-05-14T12:57:37.314Z,70
2017-05-14T12:58:38.231Z,70
2017-05-14T12:59:38.854Z,60
2017-05-14T13:00:39.479Z,70
2017-05-14T13:01:40.102Z,75
2017-05-14T13:02:40.718Z,75
2017-05-14T13:03:41.337Z,50
2017-05-14T13:04:41.959Z,55
2017-05-14T13:05:42.577Z,55
2017-05-14T13:06:43.195Z,45
2017-05-14T13:07:43.815Z,70
2017-05-14T13:08:44.733Z,80
2017-05-14T13:09:45.358Z,70
2017-05-14T13:10:45.984Z,75
2017-05-14T13:11:46.602Z,80
2017-05-14T13:12:47.228Z,80
2017-05-14T13:13:48.146Z,45
2017-05-14T13:14:48.766Z,70
2017-05-14T13:15:49.387Z,80
2017-05-14T13:16:50.008Z,80
2017-05-14T13:17:50.628Z,50
2017-05-14T13:18:51.263Z,40
2017-05-14T13:19:51.872Z,50
2017-05-14T13:20:52.490Z,55
2017-05-14T13:21:53.111Z,80
2017-05-14T13:22:53.736Z,75
2017-05-14T13:23:54.558Z,70
2017-05-14T13:24:55.187Z,70
2017-05-14T13:25:55.804Z,45
2017-05-14T13:26:56.425Z,25
2017-05-14T13:27:57.045Z,25
2017-05-14T13:28:57.716Z,20
2017-05-14T13:29:58.336Z,20
2017-05-14T13:30:58.956Z,20
2017-05-14T13:31:59.576Z,25
2017-05-14T13:33:00.195Z,30
2017-05-14T13:34:00.815Z,30
2017-05-14T13:35:01.438Z,30
2017-05-14T13:36:02.059Z,30
2017-05-14T13:37:02.679Z,35
2017-05-14T13:38:03.299Z,30
2017-05-14T13:39:03.969Z,40
2017-05-14T13:40:04.595Z,30
2017-05-14T13:41:05.216Z,30
2017-05-14T13:42:05.831Z,30
2017-05-14T13:43:06.453Z,30
2017-05-14T13:44:07.073Z,35
2017-05-14T13:45:07.698Z,35
2017-05-14T13:46:08.321Z,30
2017-05-14T13:47:08.937Z,30
2017-05-14T13:48:09.563Z,30
2017-05-14T13:49:10.232Z,30
2017-05-14T13:50:10.857Z,30
2017-05-14T13:51:11.473Z,30
2017-05-14T13:52:12.093Z,30
2017-05-14T13:53:12.719Z,25
2017-05-14T13:54:13.395Z,25
2017-05-14T13:55:14.047Z,25
2017-05-14T13:56:14.666Z,25
2017-05-14T13:57:15.293Z,25
2017-05-14T13:58:15.909Z,25
2017-05-14T13:59:16.528Z,25
2017-05-14T14:00:17.178Z,25
2017-05-14T14:01:17.798Z,25
2017-05-14T14:02:18.418Z,25
2017-05-14T14:03:19.042Z,25
2017-05-14T14:04:19.708Z,25
2017-05-14T14:05:20.335Z,25
2017-05-14T14:06:20.984Z,25
2017-05-14T14:07:21.601Z,25
2017-05-14T14:08:22.226Z,30
2017-05-14T14:09:22.893Z,30
2017-05-14T14:10:23.512Z,30
2017-05-14T14:11:24.130Z,35
2017-05-14T14:12:24.750Z,50
2017-05-14T14:13:25.368Z,45
2017-05-14T14:14:26.044Z,50
2017-05-14T14:15:26.661Z,45
2017-05-14T14:16:27.278Z,60
2017-05-14T14:17:27.897Z,55
2017-05-14T14:18:28.518Z,60
2017-05-14T14:19:29.139Z,60
2017-05-14T14:20:29.759Z,45
2017-05-14T14:21:30.379Z,55
2017-05-14T14:22:30.997Z,55
2017-05-14T14:23:31.616Z,40
2017-05-14T14:24:32.287Z,60
2017-05-14T14:25:32.906Z,50
2017-05-14T14:26:33.530Z,40
2017-05-14T14:27:34.145Z,35
2017-05-14T14:28:34.766Z,35
2017-05-14T14:29:35.386Z,35
2017-05-14T14:30:36.006Z,35
2017-05-14T14:31:36.630Z,35
2017-05-14T14:32:37.245Z,40
2017-05-14T14:33:37.867Z,40
2017-05-14T14:34:38.537Z,60
2017-05-14T14:35:39.163Z,40
2017-05-14T14:36:39.831Z,45
2017-05-14T14:37:40.401Z,50